首页
METAR-TAF:

METAR-TAF

机场 :

赛义德·易卜拉欣王子国际机场

莫洛尼, 葛摩

纬度: 11-32S, 经度: 043-16E, 海拔: 29米

当前天气观测

该预报发布于33分钟前的11:00 UTC
风速12节,风向
温度 32°C
湿度 67%
气压 1011 hPa
能见度10公里或以上
散云层高于2500英尺

METAR: FMCH 241100Z 36012KT 9999 SCT025 32/25 Q1011 NOSIG

时间: 14:33 (11:33 UTC)

预报

该预报发布于6小时和33分钟前的05:00 UTC
预报有效从24日的 06点(UTC)到 25日的 12点(UTC)
风速12节,风向西北
能见度10公里或以上
少量云层高于2000英尺
几率 30% :
短暂存在
从 24日的 10点(UTC)到 24日的 15点(UTC)
能見度: 4500
散云层高于2000英尺, 积雨云.
散云层高于3000英尺
雷暴, 阵雨
成为
从 24日的 16点(UTC)到 24日的 18点(UTC)
风速3节,风向
成为
从 25日的 04点(UTC)到 25日的 06点(UTC)
风速10节,风向西转西北

TAF: FMCH 240500Z 2406/2512 32012KT 9999 FEW020 PROB30 TEMPO 2410/2415 4500 TS SHRA SCT020CB SCT030 BECMG 2416/2418 10003KT BECMG 2504/2506 30010KT

超过4000个机场的气象观测和天气预报(METAR&TAF报告)。

可查询的气象台以黄色和红色小点在地图上表示。

将鼠标移到小点上方,可查看气象台名称。

然后点击查看天气观测和预报。

如需切换地图:点击带黑十字的绿色按钮放大地图;点击带横线的绿色按钮缩小地图;或者点击绿色箭头查看邻近地区的地图。


METAR-TAF: